Ballymena, United Kingdom
Current Conditions -  °F | °C
As of 4:20 AM on Wednesday 28 Jan 2015 (Local Time) from EGAA Reporting Station
Light Rain Light Rain  
Wind Chill: 38°   Ceiling: 2700
Heat Index: 46°   Visibility: 6mi
Dew Point: 45°   Wind: 23mph
Humidity: 93%   Direction: 260°W
Pressure: 29.47"   Gusts: NA
Location:  54.86°N, 6.28°W
Report Text: EGAA 280420Z AUTO 26020KT 9999 -RA FEW022/// BKN027/// BKN035/// 08/07 Q0998
Loading
Personal Weather Stations






























Interactive Weather Map New forecast layout! Learn more

10-Day Weather Forecast

Advertisements
Track Severe Weather on mobile